createdAt,value
2023-03-22T00:01:31.183Z,100444.91
2023-03-22T00:03:59.211Z,100446.72
2023-03-22T00:06:27.335Z,100445.75
2023-03-22T00:08:55.579Z,100437.34
2023-03-22T00:11:27.294Z,100448.84
2023-03-22T00:13:55.029Z,100439.31
2023-03-22T00:16:23.062Z,100446.84
2023-03-22T00:18:51.417Z,100441.91
2023-03-22T00:21:19.231Z,100443.81
2023-03-22T00:23:47.036Z,100441.25
2023-03-22T00:26:15.520Z,100445.94
2023-03-22T00:28:43.550Z,100446.66
2023-03-22T00:31:11.574Z,100442.50
2023-03-22T00:33:39.420Z,100445.19
2023-03-22T00:36:09.842Z,100437.69
2023-03-22T00:38:42.996Z,100433.00
2023-03-22T00:41:12.482Z,100441.81
2023-03-22T00:43:40.727Z,100439.38
2023-03-22T00:46:09.307Z,100442.16
2023-03-22T00:48:37.100Z,100443.44
2023-03-22T00:51:05.690Z,100430.47
2023-03-22T00:53:34.336Z,100439.91
2023-03-22T00:56:01.926Z,100440.13
2023-03-22T00:58:30.798Z,100436.00
2023-03-22T01:00:59.158Z,100431.94
2023-03-22T01:03:28.069Z,100433.59
2023-03-22T01:05:55.993Z,100429.97
2023-03-22T01:08:24.313Z,100427.59
2023-03-22T01:10:52.292Z,100432.12
2023-03-22T01:13:20.165Z,100432.38
2023-03-22T01:15:50.941Z,100428.16
2023-03-22T01:18:18.943Z,100418.78
2023-03-22T01:20:46.987Z,100424.16
2023-03-22T01:23:14.656Z,100417.41
2023-03-22T01:25:42.193Z,100425.31
2023-03-22T01:28:10.347Z,100424.41
2023-03-22T01:30:40.961Z,100426.34
2023-03-22T01:33:09.357Z,100417.03
2023-03-22T01:35:37.515Z,100422.94
2023-03-22T01:38:05.788Z,100415.88
2023-03-22T01:40:35.040Z,100415.91
2023-03-22T01:43:03.471Z,100420.56
2023-03-22T01:45:40.362Z,100419.00
2023-03-22T01:48:15.001Z,100423.34
2023-03-22T01:50:47.997Z,100424.97
2023-03-22T01:53:19.064Z,100423.59
2023-03-22T01:55:47.332Z,100421.81
2023-03-22T01:58:18.084Z,100420.28
2023-03-22T02:00:48.422Z,100416.13
2023-03-22T02:03:22.246Z,100413.50
2023-03-22T02:05:50.065Z,100415.72
2023-03-22T02:08:18.095Z,100408.41
2023-03-22T02:10:46.990Z,100410.78
2023-03-22T02:13:29.988Z,100413.47
2023-03-22T02:16:10.890Z,100404.16
2023-03-22T02:18:39.210Z,100412.84
2023-03-22T02:21:25.748Z,100404.88
2023-03-22T02:24:25.246Z,100413.84
2023-03-22T02:27:00.034Z,100415.66
2023-03-22T02:29:46.003Z,100418.91
2023-03-22T02:32:31.966Z,100411.00
2023-03-22T02:35:21.240Z,100409.53
2023-03-22T02:38:10.524Z,100423.53
2023-03-22T02:41:03.584Z,100421.00
2023-03-22T02:43:46.168Z,100421.97
2023-03-22T02:46:42.976Z,100429.69
2023-03-22T02:49:16.920Z,100426.63
2023-03-22T02:52:12.471Z,100430.78
2023-03-22T02:54:44.816Z,100424.31
2023-03-22T02:57:17.801Z,100440.03
2023-03-22T02:59:46.125Z,100430.50
2023-03-22T03:02:17.394Z,100431.50
2023-03-22T03:04:48.694Z,100433.94
2023-03-22T03:07:19.545Z,100426.97
2023-03-22T03:09:48.341Z,100439.81
2023-03-22T03:12:21.928Z,100443.28
2023-03-22T03:14:51.867Z,100446.78
2023-03-22T03:17:56.496Z,100453.75
2023-03-22T03:20:39.079Z,100448.75
2023-03-22T03:23:14.529Z,100459.12
2023-03-22T03:25:49.029Z,100458.41
2023-03-22T03:28:23.002Z,100449.69
2023-03-22T03:31:01.468Z,100451.50
2023-03-22T03:33:31.666Z,100455.06
2023-03-22T03:36:03.225Z,100455.84
2023-03-22T03:38:34.365Z,100461.94
2023-03-22T03:41:05.092Z,100461.34
2023-03-22T03:43:34.077Z,100464.91
2023-03-22T03:46:02.200Z,100463.94
2023-03-22T03:48:33.774Z,100457.34
2023-03-22T03:51:02.158Z,100464.97
2023-03-22T03:53:30.554Z,100464.00
2023-03-22T03:55:58.330Z,100466.50
2023-03-22T03:58:30.731Z,100471.72
2023-03-22T04:00:58.956Z,100470.06
2023-03-22T04:03:27.827Z,100476.12
2023-03-22T04:05:56.906Z,100483.53
2023-03-22T04:08:24.637Z,100481.66
2023-03-22T04:10:52.667Z,100487.84
2023-03-22T04:13:21.689Z,100486.19
2023-03-22T04:15:53.821Z,100491.53
2023-03-22T04:18:21.648Z,100495.84
2023-03-22T04:20:53.536Z,100490.63
2023-03-22T04:23:23.242Z,100494.34
2023-03-22T04:25:51.949Z,100493.41
2023-03-22T04:28:20.582Z,100490.09
2023-03-22T04:30:52.636Z,100500.38
2023-03-22T04:33:23.297Z,100505.00
2023-03-22T04:35:57.015Z,100502.44
2023-03-22T04:38:25.858Z,100495.47
2023-03-22T04:40:55.379Z,100496.19
2023-03-22T04:43:24.816Z,100510.69
2023-03-22T04:45:54.875Z,100501.06
2023-03-22T04:48:24.365Z,100503.78
2023-03-22T04:50:53.525Z,100505.63
2023-03-22T04:53:27.417Z,100495.28
2023-03-22T04:55:59.056Z,100503.97
2023-03-22T04:58:27.629Z,100503.00
2023-03-22T05:00:55.526Z,100510.81
2023-03-22T05:03:23.601Z,100510.91
2023-03-22T05:05:57.043Z,100517.16
2023-03-22T05:08:26.286Z,100521.53
2023-03-22T05:10:55.814Z,100520.62
2023-03-22T05:13:25.529Z,100520.44
2023-03-22T05:15:54.956Z,100528.37
2023-03-22T05:18:27.771Z,100527.34
2023-03-22T05:20:57.181Z,100521.13
2023-03-22T05:23:25.269Z,100526.16
2023-03-22T05:25:54.312Z,100527.84
2023-03-22T05:28:22.321Z,100533.00
2023-03-22T05:30:51.548Z,100543.41
2023-03-22T05:33:22.759Z,100531.91
2023-03-22T05:35:51.948Z,100545.00
2023-03-22T05:38:22.853Z,100536.88
2023-03-22T05:40:51.350Z,100538.44
2023-03-22T05:43:22.152Z,100537.44
2023-03-22T05:45:51.123Z,100541.47
2023-03-22T05:48:22.720Z,100536.13
2023-03-22T05:50:50.551Z,100537.41
2023-03-22T05:53:18.395Z,100556.09
2023-03-22T05:55:46.905Z,100568.03
2023-03-22T05:58:30.819Z,100568.53
2023-03-22T06:01:01.878Z,100569.94
2023-03-22T06:03:43.790Z,100565.31
2023-03-22T06:06:18.234Z,100571.56
2023-03-22T06:08:46.740Z,100574.25
2023-03-22T06:11:14.490Z,100582.84
2023-03-22T06:13:42.388Z,100579.31
2023-03-22T06:16:11.162Z,100578.59
2023-03-22T06:18:39.101Z,100579.44
2023-03-22T06:21:07.639Z,100583.47
2023-03-22T06:23:36.441Z,100590.97
2023-03-22T06:26:07.163Z,100587.28
2023-03-22T06:28:38.362Z,100594.19
2023-03-22T06:31:10.402Z,100587.62
2023-03-22T06:33:39.059Z,100587.41
2023-03-22T06:36:07.466Z,100591.56
2023-03-22T06:38:35.848Z,100577.16
2023-03-22T06:41:04.182Z,100596.78
2023-03-22T06:43:32.632Z,100590.53
2023-03-22T06:46:01.634Z,100595.44
2023-03-22T06:48:31.742Z,100591.88
2023-03-22T06:51:02.660Z,100602.09
2023-03-22T06:53:31.432Z,100597.44
2023-03-22T06:55:59.261Z,100590.16
2023-03-22T06:58:27.959Z,100603.75
2023-03-22T07:00:57.244Z,100603.37
2023-03-22T07:03:24.904Z,100606.22
2023-03-22T07:05:53.422Z,100605.63
2023-03-22T07:08:21.580Z,100601.16
2023-03-22T07:10:51.268Z,100597.88
2023-03-22T07:13:19.571Z,100598.06
2023-03-22T07:15:48.031Z,100601.16
2023-03-22T07:18:17.164Z,100603.37
2023-03-22T07:20:45.842Z,100602.59
2023-03-22T07:23:13.829Z,100601.81
2023-03-22T07:25:43.664Z,100611.59
2023-03-22T07:28:12.528Z,100611.81
2023-03-22T07:30:40.831Z,100614.84
2023-03-22T07:33:12.416Z,100620.47
2023-03-22T07:35:41.542Z,100624.03
2023-03-22T07:38:09.825Z,100629.16
2023-03-22T07:40:41.767Z,100625.12
2023-03-22T07:43:13.213Z,100630.88
2023-03-22T07:45:41.996Z,100618.38
2023-03-22T07:48:15.786Z,100633.25
2023-03-22T07:50:45.456Z,100635.38
2023-03-22T07:53:14.139Z,100635.22
2023-03-22T07:55:44.481Z,100634.00
2023-03-22T07:58:12.314Z,100629.06
2023-03-22T08:00:40.971Z,100636.38
2023-03-22T08:03:15.495Z,100638.47
2023-03-22T08:05:44.393Z,100646.81
2023-03-22T08:08:13.658Z,100641.16
2023-03-22T08:10:41.730Z,100649.59
2023-03-22T08:13:09.685Z,100638.72
2023-03-22T08:15:38.833Z,100639.50
2023-03-22T08:18:08.739Z,100631.34
2023-03-22T08:20:38.344Z,100634.44
2023-03-22T08:23:11.420Z,100631.72
2023-03-22T08:25:55.514Z,100637.34
2023-03-22T08:28:23.990Z,100618.28
2023-03-22T08:30:51.933Z,100630.53
2023-03-22T08:33:22.059Z,100631.84
2023-03-22T08:35:51.105Z,100626.81
2023-03-22T08:38:19.721Z,100629.28
2023-03-22T08:40:48.252Z,100633.13
2023-03-22T08:43:18.845Z,100626.13
2023-03-22T08:45:47.732Z,100627.31
2023-03-22T08:48:16.120Z,100632.34
2023-03-22T08:50:45.120Z,100627.22
2023-03-22T08:53:15.939Z,100626.72
2023-03-22T08:55:47.672Z,100628.22
2023-03-22T08:58:23.945Z,100628.84
2023-03-22T09:00:53.088Z,100628.28
2023-03-22T09:03:24.989Z,100629.50
2023-03-22T09:05:53.472Z,100630.53
2023-03-22T09:08:22.040Z,100624.81
2023-03-22T09:10:52.199Z,100621.94
2023-03-22T09:13:20.712Z,100620.97
2023-03-22T09:15:48.892Z,100625.88
2023-03-22T09:18:17.469Z,100629.56
2023-03-22T09:20:46.674Z,100617.25
2023-03-22T09:23:17.968Z,100621.19
2023-03-22T09:25:46.973Z,100624.25
2023-03-22T09:28:17.522Z,100626.87
2023-03-22T09:30:45.609Z,100614.16
2023-03-22T09:33:13.897Z,100618.56
2023-03-22T09:35:43.071Z,100609.09
2023-03-22T09:38:13.796Z,100615.81
2023-03-22T09:40:52.100Z,100604.62
2023-03-22T09:43:20.972Z,100599.00
2023-03-22T09:45:50.485Z,100607.59
2023-03-22T09:48:23.187Z,100598.03
2023-03-22T09:50:53.359Z,100598.12
2023-03-22T09:53:24.277Z,100600.13
2023-03-22T09:56:00.328Z,100593.69
2023-03-22T09:58:34.446Z,100591.53
2023-03-22T10:01:14.272Z,100591.06
2023-03-22T10:03:54.527Z,100593.25
2023-03-22T10:06:28.226Z,100586.97
2023-03-22T10:09:27.145Z,100588.44
2023-03-22T10:12:22.526Z,100587.47
2023-03-22T10:14:56.559Z,100579.53
2023-03-22T10:17:25.800Z,100578.91
2023-03-22T10:20:08.888Z,100575.50
2023-03-22T10:22:40.275Z,100583.59
2023-03-22T10:25:10.007Z,100579.59
2023-03-22T10:27:37.982Z,100575.47
2023-03-22T10:30:21.817Z,100580.22
2023-03-22T10:33:04.844Z,100577.06
2023-03-22T10:35:32.556Z,100583.41
2023-03-22T10:38:02.879Z,100588.19
2023-03-22T10:40:33.212Z,100577.09
2023-03-22T10:43:06.088Z,100587.22
2023-03-22T10:45:35.372Z,100575.84
2023-03-22T10:48:27.342Z,100577.50
2023-03-22T10:50:55.611Z,100578.12
2023-03-22T10:53:44.042Z,100575.00
2023-03-22T10:56:15.319Z,100575.09
2023-03-22T10:58:43.169Z,100565.09
2023-03-22T11:01:17.285Z,100562.25
2023-03-22T11:03:49.555Z,100568.25
2023-03-22T11:06:23.511Z,100567.13
2023-03-22T11:08:54.431Z,100566.84
2023-03-22T11:11:35.124Z,100565.28
2023-03-22T11:14:14.985Z,100554.47
2023-03-22T11:17:20.510Z,100548.50
2023-03-22T11:20:02.277Z,100559.16
2023-03-22T11:22:41.490Z,100551.69
2023-03-22T11:25:21.870Z,100546.88
2023-03-22T11:27:52.097Z,100557.06
2023-03-22T11:30:28.518Z,100543.13
2023-03-22T11:33:03.985Z,100544.84
2023-03-22T11:35:32.368Z,100544.50
2023-03-22T11:38:02.489Z,100538.44
2023-03-22T11:40:36.306Z,100540.50
2023-03-22T11:43:20.751Z,100527.28
2023-03-22T11:45:57.816Z,100535.91
2023-03-22T11:48:33.559Z,100529.19
2023-03-22T11:51:20.565Z,100520.81
2023-03-22T11:53:49.997Z,100512.28
2023-03-22T11:56:30.429Z,100517.78
2023-03-22T11:59:08.796Z,100515.78
2023-03-22T12:01:43.264Z,100511.84
2023-03-22T12:04:18.083Z,100515.22
2023-03-22T12:06:45.891Z,100522.78
2023-03-22T12:09:33.190Z,100523.88
2023-03-22T12:12:03.715Z,100516.62
2023-03-22T12:14:51.899Z,100515.19
2023-03-22T12:17:36.254Z,100513.28
2023-03-22T12:20:18.024Z,100523.34
2023-03-22T12:22:52.789Z,100510.63
2023-03-22T12:25:35.351Z,100510.16
2023-03-22T12:28:07.682Z,100510.97
2023-03-22T12:30:49.655Z,100502.00
2023-03-22T12:33:30.060Z,100499.94
2023-03-22T12:36:03.606Z,100514.50
2023-03-22T12:38:48.380Z,100501.72
2023-03-22T12:41:22.354Z,100507.09
2023-03-22T12:43:54.737Z,100494.44
2023-03-22T12:46:58.221Z,100492.59
2023-03-22T12:49:47.991Z,100497.84
2023-03-22T12:52:21.078Z,100496.97
2023-03-22T12:54:50.198Z,100489.06
2023-03-22T12:57:18.490Z,100485.00
2023-03-22T12:59:49.780Z,100481.25
2023-03-22T13:02:32.524Z,100481.37
2023-03-22T13:05:04.920Z,100480.81
2023-03-22T13:07:41.915Z,100480.75
2023-03-22T13:10:32.466Z,100480.19
2023-03-22T13:13:21.332Z,100482.19
2023-03-22T13:16:13.757Z,100481.00
2023-03-22T13:18:44.072Z,100480.31
2023-03-22T13:21:15.432Z,100480.34
2023-03-22T13:24:05.970Z,100476.72
2023-03-22T13:26:38.693Z,100484.13
2023-03-22T13:29:16.348Z,100473.38
2023-03-22T13:31:47.753Z,100476.22
2023-03-22T13:34:19.184Z,100476.88
2023-03-22T13:36:54.166Z,100475.78
2023-03-22T13:39:25.115Z,100468.41
2023-03-22T13:42:07.382Z,100467.66
2023-03-22T13:44:40.454Z,100456.12
2023-03-22T13:47:38.042Z,100453.16
2023-03-22T13:50:11.297Z,100453.63
2023-03-22T13:52:52.124Z,100455.69
2023-03-22T13:55:41.559Z,100454.78
2023-03-22T13:58:48.365Z,100452.12
2023-03-22T14:01:22.147Z,100444.88
2023-03-22T14:03:50.746Z,100444.03
2023-03-22T14:06:24.487Z,100446.56
2023-03-22T14:08:57.553Z,100451.88
2023-03-22T14:11:40.966Z,100445.53
2023-03-22T14:14:16.379Z,100450.09
2023-03-22T14:16:47.399Z,100450.03
2023-03-22T14:19:29.617Z,100449.19
